• Join FlightAware (Why Join?)
  • Login
  • US Flag 
05:21AM EDT


 

Airport Tracker/Info


-or-


 

Live Flight TrackerFlight Track Log ✈ UAL527 ✈ 08-Jun-2013 ✈ KORD - KBWI

Flight Track Log - Related Links

Times and Time Zones

All times are in EDT time to prevent confusion due to time zone crossing. See the UAL527 flight status page for this flight to view local times or setup timezone preferences in your user account.

Time Position Orientation Groundspeed Altitude Reporting Facility
EDT Latitude Longitude Course Direction KTS MPH feet Rate Location/Type
10:27PM 42.0192 -87.8178 84° East 254 292 5,000  Level Chicago Center
10:28PM 42.0081 -87.7114 98° East 279 321 8,700 3,780 Climbing Chicago Center
10:29PM 41.9346 -87.1661 96° East  Level FlightAware Approximate
10:29PM 41.9961 -87.5761 97° East 299 344 12,700  Level Chicago Center
10:30PM 41.9333 -87.0190 90° East  Level FlightAware Approximate
10:30PM 41.9858 -87.4531 96° East 321 369 14,800  Level Chicago Center
10:31PM 41.9334 -86.8718 90° East  Level FlightAware Approximate
10:31PM 41.9697 -87.3053 98° East 381 438 17,000  Level Chicago Center
10:32PM 41.9379 -86.7249 84° East  Level FlightAware Approximate
10:32PM 41.9533 -87.1528 98° East 407 468 19,500  Level Chicago Center
10:33PM 41.9447 -86.9936 94° East 422 486 21,700 1,980 Climbing Chicago Center
10:34PM 41.9486 -86.8294 88° East 438 504 23,600 1,800 Climbing Chicago Center
10:35PM 41.9506 -86.6500 89° East 455 524 25,400 1,740 Climbing Chicago Center
10:36PM 41.9517 -86.4722 89° East 470 541 27,200 1,620 Climbing Chicago Center
10:37PM 41.9539 -86.2917 89° East 480 552 28,700 1,440 Climbing Chicago Center
10:38PM 41.9356 -86.1086 98° East 490 564 30,200 1,380 Climbing Chicago Center
10:39PM 41.8992 -85.9300 105° East 495 570 31,600 1,500 Climbing Chicago Center
10:40PM 41.8636 -85.7486 105° East 500 575 33,300 1,500 Climbing Chicago Center
10:41PM 41.8289 -85.5692 105° East 496 571 34,700 1,620 Climbing Chicago Center
10:42PM 41.7944 -85.3864 104° East 495 570 36,600 1,440 Climbing Chicago Center
10:43PM 41.7569 -85.2056 105° East 494 568 37,700 960 Climbing Chicago Center
10:44PM 41.7194 -85.0317 106° East 488 562 38,600 600 Climbing Chicago Center
10:45PM 41.6822 -84.8553 106° East 491 565 39,000 180 Climbing Chicago Center
10:46PM 41.6622 -84.6772 98° East 484 557 39,000  Level Chicago Center
10:47PM 41.6564 -84.5300 93° East 482 555 39,000  Level Cleveland Center
10:48PM 41.6139 -84.3633 109° East 482 555 39,000  Level Cleveland Center
10:49PM 41.5425 -84.1900 119° Southeast 477 549 39,000  Level Cleveland Center
10:50PM 41.4828 -84.0342 117° Southeast 477 549 39,000  Level Cleveland Center
10:51PM 41.4206 -83.8758 118° Southeast 477 549 39,000  Level Cleveland Center
10:52PM 41.3603 -83.7178 117° Southeast 477 549 39,000  Level Cleveland Center
10:53PM 41.2978 -83.5600 118° Southeast 477 549 39,000  Level Cleveland Center
10:54PM 41.2394 -83.4025 116° Southeast 477 549 39,000  Level Cleveland Center
10:55PM 41.1764 -83.2425 118° Southeast 482 555 39,000  Level Cleveland Center
10:56PM 41.1153 -83.0858 117° Southeast 482 555 39,000  Level Cleveland Center
10:57PM 41.0542 -82.9264 117° Southeast 482 555 39,000  Level Cleveland Center
10:58PM 40.9925 -82.7703 118° Southeast 482 555 39,000  Level Cleveland Center
10:59PM 40.9308 -82.6142 118° Southeast 477 549 39,000  Level Cleveland Center
11:00PM 40.8747 -82.4806 119° Southeast 478 550 39,000  Level Cleveland Center
11:00PM 40.8478 -82.4050 115° Southeast 474 545 39,000  Level Indianapolis Center
11:01PM 40.7858 -82.2494 118° Southeast 478 550 39,000  Level Indianapolis Center
11:02PM 40.7222 -82.0953 119° Southeast 476 548 39,000  Level Indianapolis Center
11:03PM 40.6878 -82.0153 120° Southeast 478 550 39,000  Level Cleveland Center
11:04PM 40.6250 -81.8633 119° Southeast 478 550 39,000  Level Cleveland Center
11:04PM 40.5967 -81.7861 116° Southeast 476 548 39,000  Level Indianapolis Center
11:05PM 40.5331 -81.6306 118° Southeast 479 551 39,000  Level Indianapolis Center
11:06PM 40.4986 -81.5522 120° Southeast 478 550 39,000  Level Cleveland Center
11:07PM 40.4356 -81.3769 115° Southeast 484 557 39,000  Level Cleveland Center
11:08PM 40.3844 -81.2100 112° Southeast 484 557 39,000  Level Cleveland Center
11:08PM 40.3586 -81.1425 117° Southeast 495 570 39,000  Level Indianapolis Center
11:09PM 40.3289 -81.0489 113° Southeast 484 557 39,000  Level Cleveland Center
11:10PM 40.2753 -80.8825 113° Southeast 484 557 39,000  Level Cleveland Center
11:11PM 40.2192 -80.7136 113° Southeast 484 557 39,000  Level Cleveland Center
11:12PM 40.1650 -80.5531 114° Southeast 484 557 39,000  Level Cleveland Center
11:13PM 40.1086 -80.3875 114° Southeast 484 557 39,000  Level Cleveland Center
11:14PM 40.0519 -80.2225 114° Southeast 491 565 39,000 -1,200 Level Cleveland Center
11:16PM 39.9242 -79.8419 114° Southeast 495 570 35,000 -1,620 Descending Washington Center
11:17PM 39.8714 -79.6847 114° Southeast 485 558 33,400 -1,980 Descending Washington Center
11:18PM 39.8181 -79.5331 115° Southeast 470 541 31,000 -2,700 Descending Washington Center
11:19PM 39.7667 -79.3844 114° Southeast 465 535 28,200 -2,820 Descending Washington Center
11:20PM 39.7128 -79.2333 115° Southeast 455 524 25,500 -2,160 Descending Washington Center
11:21PM 39.6631 -79.0850 113° Southeast 455 524 24,000 -1,620 Descending Washington Center
11:22PM 39.6222 -78.9106 107° East 448 516 22,400 -1,740 Descending Washington Center
11:23PM 39.5889 -78.7556 106° East 448 516 20,600 -1,800 Descending Washington Center
11:24PM 39.5572 -78.6089 106° East 435 501 18,800 -1,740 Descending Washington Center
11:25PM 39.5272 -78.4678 105° East 421 484 17,200 -1,620 Descending Washington Center
11:26PM 39.4931 -78.3264 107° East 415 478 15,600 -1,140 Descending Washington Center
11:27PM 39.4628 -78.1908 106° East 403 464 15,000 -300 Descending Washington Center
11:28PM 39.4322 -78.0528 106° East 403 464 15,100 -720 Climbing Washington Center
11:29PM 39.4036 -77.9203 106° East 397 457 13,600 -1,560 Descending Washington Center
11:30PM 39.3792 -77.7853 103° East 392 451 12,000 -1,440 Descending Washington Center
11:31PM 39.3542 -77.6583 104° East 374 430 10,700 -1,260 Descending Washington Center
11:32PM 39.3500 -77.6000 95° East 342 394 10,200 -1,080 Descending Potomac TRACON
11:33PM 39.3333 -77.4833 100° East 311 358 9,200 -1,140 Descending Potomac TRACON
11:34PM 39.3167 -77.3833 102° East 307 353 8,100 -1,140 Descending Potomac TRACON
11:35PM 39.2833 -77.2833 113° Southeast 302 348 7,000 -600 Descending Potomac TRACON
11:36PM 39.2667 -77.1667 100° East 302 348 6,900 -120 Descending Potomac TRACON
11:37PM 39.2500 -77.0667 102° East 300 345 6,800 -600 Descending Potomac TRACON
11:38PM 39.2333 -76.9667 102° East 293 337 5,800 -1,140 Descending Potomac TRACON
11:39PM 39.2167 -76.8833 104° East 279 321 4,800 -1,200 Descending Potomac TRACON
11:40PM 39.1833 -76.8000 117° Southeast 265 305 3,600 -1,080 Descending Potomac TRACON
11:41PM 39.1333 -76.7333 134° Southeast 230 265 2,700 -900 Descending Potomac TRACON